Klondike, Georgia
Current Conditions -  °F | °C
As of 9:55 AM on Thursday 30 Oct 2014 (Local Time) from KPXE Reporting Station
Clear Clear  
Wind Chill: 59°   Ceiling: Unl
Heat Index: 59°   Visibility: 10mi
Dew Point: 44°   Wind: 8mph
Humidity: 57%   Direction: 360°N
Pressure: 30.07"   Gusts: NA
Location:  32.2568°N, 83.5362°W
Report Text: KPXE 301355Z AUTO 36007KT 10SM CLR 15/07 A3007 RMK AO2 T01510066
Loading
Personal Weather Stations






























Interactive Weather Map
Tropical Storm Tracking
New forecast layout! Learn more

10-Day Weather Forecast

Advertisements
Track Severe Weather on mobile